Time;durP1;ratioP1;P1;durP2;ratioP2;P2;SDS_P1;SDS_P2;PMS_P1;PMS_P2;Temp;Humidity;BMP_temperature;BMP_pressure;BME280_temperature;BME280_humidity;BME280_pressure;Samples;Min_cycle;Max_cycle;Signal;HPM_P1;HPM_P2
2023/05/15 00:00:52;;;;;;;7.70;4.97;;;7.30;1.00;7.70;93709.00;;;;7404180;19;20578;-87
2023/05/15 00:03:26;;;;;;;8.03;5.13;;;7.40;1.00;7.80;93700.00;;;;7400663;19;20171;-87
2023/05/15 00:06:00;;;;;;;6.90;5.60;;;7.40;1.00;7.90;93706.00;;;;7403592;19;20149;-88
2023/05/15 00:08:35;;;;;;;8.77;6.00;;;7.50;1.00;8.00;93712.00;;;;7403474;19;20146;-87
2023/05/15 00:11:16;;;;;;;12.37;5.83;;;7.50;1.00;8.00;93692.00;;;;7404439;19;20133;-87
2023/05/15 00:13:50;;;;;;;7.63;5.67;;;7.60;1.00;8.10;93707.00;;;;7404649;19;20133;-88
2023/05/15 00:16:24;;;;;;;8.77;5.60;;;7.70;1.00;8.20;93706.00;;;;7402797;19;20620;-88
2023/05/15 00:18:58;;;;;;;9.37;6.10;;;7.70;1.00;8.20;93712.00;;;;7403317;19;20610;-87
2023/05/15 00:21:32;;;;;;;7.17;5.73;;;7.80;1.00;8.10;93703.00;;;;7381547;19;20144;-87
2023/05/15 00:24:00;;;;;;;6.93;5.50;;;7.90;1.00;8.20;93705.00;;;;7403983;19;20123;-87
2023/05/15 00:26:33;;;;;;;6.80;6.10;;;7.90;1.00;8.20;93684.00;;;;7402308;19;20504;-87
2023/05/15 00:29:07;;;;;;;7.63;5.93;;;7.90;1.00;8.10;93690.00;;;;7402741;19;20648;-87
2023/05/15 00:31:34;;;;;;;6.10;5.50;;;7.90;1.00;8.10;93703.00;;;;7402993;19;20140;-87
2023/05/15 00:34:01;;;;;;;6.70;6.00;;;7.90;1.00;8.10;93691.00;;;;7403586;19;20140;-87
2023/05/15 00:36:35;;;;;;;6.97;5.87;;;7.80;1.00;8.20;93675.00;;;;7401489;19;20165;-86
2023/05/15 00:39:02;;;;;;;8.73;5.37;;;7.90;1.00;8.30;93689.00;;;;7400443;19;20137;-87
2023/05/15 00:41:37;;;;;;;7.33;6.07;;;7.90;1.00;8.30;93688.00;;;;7403891;19;20129;-85
2023/05/15 00:44:12;;;;;;;9.03;6.10;;;8.00;1.00;8.10;93683.00;;;;7403890;19;20137;-86
2023/05/15 00:46:48;;;;;;;6.80;6.03;;;8.00;1.00;8.20;93688.00;;;;7401155;19;20493;-85
2023/05/15 00:49:22;;;;;;;9.20;6.00;;;8.00;1.00;8.10;93677.00;;;;7402495;19;20125;-86
2023/05/15 00:51:50;;;;;;;10.97;7.43;;;8.00;1.00;8.40;93689.00;;;;7403197;19;20136;-86
2023/05/15 00:54:24;;;;;;;7.70;6.30;;;8.10;1.00;8.40;93678.00;;;;7401294;19;20169;-86
2023/05/15 00:56:56;;;;;;;10.17;7.73;;;8.10;1.00;8.40;93691.00;;;;7401731;19;20142;-85
2023/05/15 00:59:31;;;;;;;7.77;6.33;;;8.10;1.00;8.40;93688.00;;;;7397530;19;20149;-84
2023/05/15 01:02:13;;;;;;;7.10;6.40;;;8.10;1.00;8.30;93637.00;;;;7396031;19;20220;-89
2023/05/15 01:04:59;;;;;;;6.73;6.00;;;8.20;1.00;8.30;93680.00;;;;7404936;19;20156;-90
2023/05/15 01:08:32;;;;;;;7.70;6.10;;;8.10;99.90;8.30;93680.00;;;;7401956;19;20165;-89
2023/05/15 01:11:34;;;;;;;7.07;5.83;;;8.00;99.90;8.20;93678.00;;;;7401588;19;20148;-86
2023/05/15 01:14:14;;;;;;;7.87;6.33;;;8.00;99.90;8.30;93659.00;;;;7401705;19;20129;-86
2023/05/15 01:16:48;;;;;;;6.87;5.83;;;8.00;99.90;8.20;93663.00;;;;7401539;19;20516;-87
2023/05/15 01:19:15;;;;;;;8.37;5.77;;;7.90;99.90;8.20;93674.00;;;;7399083;19;20148;-87
2023/05/15 01:22:27;;;;;;;7.07;5.97;;;7.90;99.90;8.30;93672.00;;;;7401678;19;20230;-85
2023/05/15 01:25:03;;;;;;;6.50;5.90;;;7.80;99.90;8.20;93698.00;;;;7400092;19;20639;-84
2023/05/15 01:27:44;;;;;;;7.27;5.90;;;7.90;1.00;8.20;93673.00;;;;7401597;19;20152;-84
2023/05/15 01:30:22;;;;;;;6.13;5.47;;;7.90;1.00;8.30;93697.00;;;;7401545;19;20137;-84
2023/05/15 01:33:11;;;;;;;6.20;5.60;;;8.00;1.00;8.50;93666.00;;;;7400851;19;20157;-85
2023/05/15 01:36:13;;;;;;;6.10;5.50;;;8.10;1.00;8.70;93681.00;;;;7400109;19;20464;-85
2023/05/15 01:38:59;;;;;;;7.13;5.07;;;8.00;1.00;8.60;93651.00;;;;7399514;19;20590;-85
2023/05/15 01:42:07;;;;;;;5.20;4.70;;;8.00;1.00;8.40;93669.00;;;;7399494;19;20500;-86
2023/05/15 01:44:48;;;;;;;5.70;5.10;;;7.90;99.90;8.20;93684.00;;;;7400210;19;20200;-84
2023/05/15 01:47:25;;;;;;;6.33;5.03;;;7.80;99.90;8.00;93694.00;;;;7400740;19;20636;-84
2023/05/15 01:50:02;;;;;;;6.03;4.83;;;7.70;1.00;8.00;93682.00;;;;7401235;19;20158;-84
2023/05/15 01:52:37;;;;;;;6.33;5.20;;;7.70;1.00;8.00;93690.00;;;;7398487;19;20657;-84
2023/05/15 01:55:15;;;;;;;10.10;5.60;;;7.70;1.00;8.10;93692.00;;;;7399522;19;20140;-85
2023/05/15 01:57:51;;;;;;;5.53;5.03;;;7.70;1.00;8.20;93680.00;;;;7399004;19;20161;-85
2023/05/15 02:00:24;;;;;;;6.23;5.53;;;7.70;1.00;8.20;93683.00;;;;7396611;19;20169;-84
2023/05/15 02:03:00;;;;;;;6.43;5.73;;;7.70;1.00;8.20;93697.00;;;;7397921;19;20527;-84
2023/05/15 02:05:34;;;;;;;6.97;5.60;;;7.80;1.00;8.30;93680.00;;;;7399967;19;20494;-85
2023/05/15 02:08:03;;;;;;;6.20;5.55;;;7.80;1.00;8.40;93686.00;;;;7399770;19;20133;-84
2023/05/15 02:10:38;;;;;;;6.40;5.17;;;7.90;1.00;8.50;93652.00;;;;7400038;19;20603;-85
2023/05/15 02:13:08;;;;;;;6.97;5.30;;;8.00;1.00;8.40;93672.00;;;;7401510;19;20128;-85
2023/05/15 02:15:42;;;;;;;8.57;5.38;;;8.00;1.00;8.40;93670.00;;;;7398380;19;20149;-87
2023/05/15 02:18:16;;;;;;;13.37;5.93;;;8.00;1.00;8.50;93676.00;;;;7399438;19;20133;-86
2023/05/15 02:20:50;;;;;;;5.80;5.17;;;8.10;1.00;8.40;93666.00;;;;7398802;19;20129;-85
2023/05/15 02:23:24;;;;;;;6.22;5.47;;;8.10;1.00;8.30;93691.00;;;;7399203;19;20178;-85
2023/05/15 02:26:35;;;;;;;10.02;5.57;;;8.00;99.90;8.40;93686.00;;;;7397575;19;20152;-85
2023/05/15 02:29:48;;;;;;;6.25;5.50;;;8.00;99.90;8.40;93679.00;;;;7398715;19;20165;-86
2023/05/15 02:32:29;;;;;;;7.07;5.35;;;8.00;99.90;8.30;93679.00;;;;7399814;19;20208;-85
2023/05/15 02:35:38;;;;;;;8.50;5.23;;;8.00;99.90;8.40;93681.00;;;;7400619;19;20280;-85
2023/05/15 02:38:17;;;;;;;6.80;5.43;;;8.00;99.90;8.40;93681.00;;;;7398100;19;20161;-84
2023/05/15 02:40:54;;;;;;;5.67;5.00;;;8.00;99.90;8.50;93649.00;;;;7395485;19;20147;-84
2023/05/15 02:43:29;;;;;;;7.00;5.00;;;8.10;1.00;8.50;93691.00;;;;7400101;19;20132;-84
2023/05/15 02:46:05;;;;;;;6.00;5.13;;;8.10;1.00;8.50;93657.00;;;;7398983;19;20149;-85
2023/05/15 02:48:41;;;;;;;7.07;5.43;;;8.20;99.90;8.50;93681.00;;;;7399613;19;20485;-87
2023/05/15 02:51:15;;;;;;;7.50;5.37;;;8.10;99.90;8.50;93608.00;;;;7399221;19;20185;-85
2023/05/15 02:53:50;;;;;;;6.50;5.13;;;8.10;99.90;8.60;93687.00;;;;7396507;19;20137;-84
2023/05/15 02:56:18;;;;;;;6.43;5.77;;;8.10;99.90;8.60;93679.00;;;;7397070;19;20156;-85
2023/05/15 02:58:51;;;;;;;5.53;4.97;;;8.20;99.90;8.80;93645.00;;;;7397494;19;20147;-84
2023/05/15 03:01:25;;;;;;;6.27;5.30;;;8.20;99.90;8.90;93646.00;;;;7397556;19;20521;-85
2023/05/15 03:04:06;;;;;;;6.00;5.20;;;8.20;99.90;8.80;93676.00;;;;7397108;19;20156;-85
2023/05/15 03:06:43;;;;;;;5.80;5.25;;;8.20;99.90;9.00;93671.00;;;;7398005;19;20148;-84
2023/05/15 03:09:17;;;;;;;6.10;5.50;;;8.20;99.90;9.00;93654.00;;;;7399219;19;20140;-87
2023/05/15 03:11:51;;;;;;;7.23;5.73;;;8.30;99.90;9.00;93568.00;;;;7396807;19;20120;-85
2023/05/15 03:14:25;;;;;;;9.97;5.87;;;8.20;99.90;9.00;93655.00;;;;7399356;19;20161;-85
2023/05/15 03:16:59;;;;;;;7.55;5.78;;;8.20;61.50;8.90;93645.00;;;;7397423;19;20129;-84
2023/05/15 03:19:33;;;;;;;7.00;5.73;;;8.20;62.90;9.00;93622.00;;;;7396163;19;20166;-84
2023/05/15 03:22:00;;;;;;;7.80;5.67;;;8.20;43.10;8.80;93654.00;;;;7397701;19;20165;-84
2023/05/15 03:24:34;;;;;;;7.30;5.60;;;8.10;30.90;8.90;93667.00;;;;7399275;19;20443;-86
2023/05/15 03:27:01;;;;;;;6.13;5.50;;;8.20;99.90;9.10;93652.00;;;;7397428;19;20161;-83
2023/05/15 03:29:37;;;;;;;6.82;5.78;;;8.20;25.10;9.00;93620.00;;;;7388445;19;20177;-82
2023/05/15 03:32:11;;;;;;;11.63;6.47;;;8.20;6.80;9.10;93670.00;;;;7400239;19;21484;-82
2023/05/15 03:34:45;;;;;;;8.70;5.60;;;8.30;1.00;9.20;93650.00;;;;7404659;19;20506;-86
2023/05/15 03:37:12;;;;;;;7.63;6.50;;;8.20;1.00;9.30;93655.00;;;;7404822;19;20148;-86
2023/05/15 03:39:39;;;;;;;11.90;7.27;;;8.30;1.00;9.10;93644.00;;;;7400898;19;20155;-86
2023/05/15 03:42:13;;;;;;;10.30;7.63;;;8.30;1.00;9.20;93605.00;;;;7404210;19;20722;-86
2023/05/15 03:44:40;;;;;;;9.50;7.73;;;8.30;1.00;9.10;93641.00;;;;7400411;19;20512;-86
2023/05/15 03:47:21;;;;;;;10.05;7.85;;;8.40;1.00;9.30;93671.00;;;;7404478;19;20136;-87
2023/05/15 03:49:48;;;;;;;10.02;8.60;;;8.40;1.00;9.20;93656.00;;;;7404275;19;20471;-88
2023/05/15 03:52:22;;;;;;;10.48;8.23;;;8.50;1.00;9.20;93679.00;;;;7405463;19;20117;-87
2023/05/15 03:54:49;;;;;;;8.68;7.55;;;8.50;1.00;9.30;93646.00;;;;7399977;19;20501;-85
2023/05/15 03:57:23;;;;;;;9.10;8.00;;;8.50;1.00;9.20;93659.00;;;;7400640;19;20161;-85
2023/05/15 04:00:02;;;;;;;10.57;8.07;;;8.40;1.00;9.30;93684.00;;;;7397630;19;20132;-84
2023/05/15 04:02:49;;;;;;;11.30;7.87;;;8.50;1.00;9.30;93646.00;;;;7402386;19;20693;-84
2023/05/15 04:05:23;;;;;;;9.83;7.40;;;8.50;99.90;9.20;93642.00;;;;7404866;19;20125;-84
2023/05/15 04:07:57;;;;;;;9.10;7.90;;;8.50;99.90;9.20;93675.00;;;;7404084;19;20596;-85
2023/05/15 04:10:32;;;;;;;10.13;8.47;;;8.50;99.90;9.20;93643.00;;;;7402043;19;20485;-84
2023/05/15 04:13:06;;;;;;;9.60;7.60;;;8.50;99.90;9.20;93654.00;;;;7401790;19;20153;-85
2023/05/15 04:15:34;;;;;;;8.48;7.32;;;8.40;99.90;9.30;93652.00;;;;7402777;19;20157;-85
2023/05/15 04:18:09;;;;;;;13.10;8.30;;;8.40;99.90;9.40;93604.00;;;;7402800;19;20183;-86
2023/05/15 04:20:36;;;;;;;10.27;8.50;;;8.30;99.90;9.20;93670.00;;;;7401508;19;20192;-85
2023/05/15 04:23:10;;;;;;;9.60;8.47;;;8.30;1.00;9.30;93680.00;;;;7402734;19;20516;-86
2023/05/15 04:25:45;;;;;;;10.67;8.33;;;8.30;1.00;9.30;93663.00;;;;7402481;19;20637;-86
2023/05/15 04:28:13;;;;;;;13.23;8.80;;;8.40;1.00;9.20;93656.00;;;;7402726;19;20162;-85
2023/05/15 04:30:48;;;;;;;14.55;8.90;;;8.40;1.00;9.30;93645.00;;;;7400147;19;20135;-85
2023/05/15 04:33:18;;;;;;;10.00;8.43;;;8.40;1.00;9.30;93677.00;;;;7399781;19;21082;-85
2023/05/15 04:35:46;;;;;;;11.32;9.85;;;8.40;99.90;9.30;93671.00;;;;7399853;19;20215;-85
2023/05/15 04:38:20;;;;;;;11.25;9.80;;;8.50;99.90;9.50;93665.00;;;;7403563;19;20141;-86
2023/05/15 04:40:48;;;;;;;10.17;8.90;;;8.50;99.90;9.40;93630.00;;;;7401066;19;20525;-85
2023/05/15 04:43:21;;;;;;;12.13;9.50;;;8.50;99.90;9.60;93643.00;;;;7397885;19;20145;-85
2023/05/15 04:45:48;;;;;;;13.20;9.77;;;8.60;99.90;9.70;93618.00;;;;7403521;19;20117;-84
2023/05/15 04:48:22;;;;;;;11.93;9.60;;;8.60;99.90;9.60;93641.00;;;;7403369;19;20145;-84
2023/05/15 04:50:56;;;;;;;12.57;9.53;;;8.70;99.90;9.70;93664.00;;;;7403517;19;20152;-84
2023/05/15 04:53:29;;;;;;;11.00;8.77;;;8.80;99.90;9.80;93675.00;;;;7403481;19;20600;-84
2023/05/15 04:56:03;;;;;;;10.68;8.68;;;8.90;99.90;9.80;93636.00;;;;7403799;19;20139;-84
2023/05/15 04:58:37;;;;;;;9.80;8.27;;;9.00;20.80;9.90;93621.00;;;;7402957;19;20148;-86
2023/05/15 05:01:11;;;;;;;10.32;8.43;;;9.00;1.00;10.10;93656.00;;;;7401647;19;20145;-86
2023/05/15 05:03:45;;;;;;;12.57;9.82;;;9.00;1.00;10.00;93637.00;;;;7401973;19;20180;-86
2023/05/15 05:06:18;;;;;;;10.60;8.25;;;9.10;1.00;9.90;93606.00;;;;7403896;19;20144;-86
2023/05/15 05:08:56;;;;;;;9.85;7.82;;;9.20;1.00;9.90;93651.00;;;;7404627;19;20132;-86
2023/05/15 05:11:30;;;;;;;14.48;8.73;;;9.30;1.00;10.10;93597.00;;;;7396843;19;20521;-87
2023/05/15 05:13:57;;;;;;;9.65;7.20;;;9.40;99.90;10.00;93657.00;;;;7387605;19;20161;-85
2023/05/15 05:16:31;;;;;;;10.68;7.38;;;9.50;99.90;10.30;93650.00;;;;7388812;19;20174;-85
2023/05/15 05:19:06;;;;;;;11.15;7.63;;;9.50;99.90;10.40;93623.00;;;;7404765;19;20213;-85
2023/05/15 05:21:42;;;;;;;9.77;7.03;;;9.60;99.90;9.60;93676.00;;;;7418262;19;20175;-86
2023/05/15 05:24:15;;;;;;;6.90;6.13;;;9.70;99.90;10.40;93603.00;;;;7417072;19;20153;-85
2023/05/15 05:26:49;;;;;;;11.30;6.72;;;9.80;1.00;10.40;93688.00;;;;7417940;19;20214;-85
2023/05/15 05:29:24;;;;;;;8.07;6.30;;;9.90;10.60;10.90;93668.00;;;;7420334;19;20121;-85
2023/05/15 05:31:58;;;;;;;7.15;5.85;;;10.00;1.00;11.30;93609.00;;;;7419898;19;20174;-86
2023/05/15 05:34:26;;;;;;;7.15;6.45;;;10.00;32.30;11.40;93620.00;;;;7419149;19;20145;-86
2023/05/15 05:37:02;;;;;;;7.53;6.72;;;10.00;1.00;11.30;93647.00;;;;7418833;19;20132;-86
2023/05/15 05:39:29;;;;;;;8.05;6.68;;;10.20;7.50;11.40;93697.00;;;;7415483;19;20155;-85
2023/05/15 05:42:14;;;;;;;7.03;6.32;;;10.20;1.00;11.40;93625.00;;;;7415208;19;20153;-86
2023/05/15 05:44:41;;;;;;;8.75;6.13;;;10.20;1.00;11.30;93673.00;;;;7416283;19;20125;-86
2023/05/15 05:47:15;;;;;;;7.85;6.28;;;10.30;1.00;11.70;93616.00;;;;7414237;19;20148;-86
2023/05/15 05:49:49;;;;;;;6.28;5.68;;;10.40;1.00;12.00;93538.00;;;;7414657;19;20151;-85
2023/05/15 05:52:23;;;;;;;6.80;6.10;;;10.50;1.00;11.70;93666.00;;;;7403575;19;20620;-85
2023/05/15 05:54:57;;;;;;;6.28;5.40;;;10.70;99.90;11.60;93691.00;;;;7399129;19;20508;-83
2023/05/15 05:57:32;;;;;;;5.97;5.38;;;10.90;99.90;12.00;93638.00;;;;7405350;19;20149;-85
2023/05/15 06:00:10;;;;;;;7.05;5.40;;;11.00;99.90;12.00;93634.00;;;;7411276;19;20148;-85
2023/05/15 06:02:37;;;;;;;5.25;4.75;;;11.00;1.00;11.90;93590.00;;;;7408994;19;20198;-85
2023/05/15 06:05:18;;;;;;;5.65;5.00;;;11.10;1.00;12.00;93669.00;;;;7412046;19;20144;-85
2023/05/15 06:07:46;;;;;;;6.45;4.57;;;11.30;99.90;12.50;93677.00;;;;7412098;19;20180;-85
2023/05/15 06:10:21;;;;;;;4.90;4.40;;;11.30;99.90;12.50;93625.00;;;;7413445;19;20148;-85
2023/05/15 06:12:49;;;;;;;4.93;4.15;;;11.50;99.90;12.50;93675.00;;;;7408664;19;20133;-83
2023/05/15 06:15:22;;;;;;;9.77;4.07;;;11.70;99.90;12.80;93605.00;;;;7407854;19;20140;-83
2023/05/15 06:17:56;;;;;;;7.13;3.90;;;11.80;1.00;12.40;93671.00;;;;7403163;19;20499;-82
2023/05/15 06:20:32;;;;;;;5.07;3.45;;;11.90;99.90;12.80;93682.00;;;;7385578;19;20153;-82
2023/05/15 06:22:59;;;;;;;6.88;3.67;;;11.90;1.00;12.80;93650.00;;;;7391200;19;20153;-84
2023/05/15 06:25:34;;;;;;;5.18;3.33;;;11.80;99.90;12.40;93571.00;;;;7393400;19;20131;-84
2023/05/15 06:28:01;;;;;;;3.60;3.30;;;11.70;1.00;12.00;93610.00;;;;7394057;19;20133;-83
2023/05/15 06:30:35;;;;;;;4.25;3.50;;;11.70;99.90;11.80;93693.00;;;;7392055;19;21089;-84
2023/05/15 06:33:12;;;;;;;3.60;3.30;;;11.60;99.90;12.50;93649.00;;;;7389574;19;20178;-84
2023/05/15 06:35:45;;;;;;;4.13;3.75;;;11.60;1.00;12.50;93691.00;;;;7391196;19;20162;-83
2023/05/15 06:38:19;;;;;;;4.20;3.72;;;11.70;99.90;12.90;93666.00;;;;7388706;19;20144;-84
2023/05/15 06:40:46;;;;;;;5.85;4.20;;;12.00;99.90;13.60;93684.00;;;;7392185;19;20499;-88
2023/05/15 06:43:20;;;;;;;4.13;3.35;;;12.30;73.00;14.00;93677.00;;;;7393636;19;20149;-84
2023/05/15 06:45:54;;;;;;;4.60;3.75;;;12.60;1.00;14.10;93682.00;;;;7386876;19;20160;-81
2023/05/15 06:48:23;;;;;;;4.55;3.75;;;12.90;1.00;14.60;93659.00;;;;7387148;19;20160;-82
2023/05/15 06:50:56;;;;;;;4.15;3.75;;;13.10;1.00;15.00;93682.00;;;;7386309;19;20156;-83
2023/05/15 06:53:24;;;;;;;3.50;3.13;;;13.30;99.90;14.50;93651.00;;;;7386645;19;20182;-83
2023/05/15 06:55:57;;;;;;;3.85;3.45;;;13.50;99.90;15.00;93664.00;;;;7387284;19;20153;-84
2023/05/15 06:58:32;;;;;;;5.40;3.42;;;13.40;99.90;15.20;93682.00;;;;7388063;19;20226;-83
2023/05/15 07:01:07;;;;;;;3.80;3.50;;;13.40;99.90;15.30;93660.00;;;;7386683;19;20204;-82
2023/05/15 07:03:48;;;;;;;3.80;3.40;;;13.40;99.90;15.30;93666.00;;;;7386160;19;20187;-83
2023/05/15 07:06:21;;;;;;;3.70;3.40;;;13.50;99.90;15.10;93665.00;;;;7373140;19;20141;-83
2023/05/15 07:08:49;;;;;;;3.90;3.50;;;13.60;99.90;14.80;93664.00;;;;7379717;19;20208;-82
2023/05/15 07:11:24;;;;;;;6.05;3.67;;;13.70;99.90;15.20;93590.00;;;;7388084;19;20182;-82
2023/05/15 07:13:59;;;;;;;3.10;2.80;;;13.70;99.90;15.50;93610.00;;;;7387691;19;20472;-83
2023/05/15 07:16:26;;;;;;;3.45;3.10;;;14.00;99.90;16.10;93670.00;;;;7386248;19;20180;-82
2023/05/15 07:19:00;;;;;;;2.97;2.72;;;14.00;99.90;15.80;93665.00;;;;7387168;19;20121;-82
2023/05/15 07:21:28;;;;;;;3.83;2.95;;;14.10;99.90;15.30;93669.00;;;;7386966;19;20588;-82
2023/05/15 07:24:01;;;;;;;3.78;2.22;;;14.10;99.90;15.30;93657.00;;;;7384662;19;20152;-82
2023/05/15 07:26:31;;;;;;;4.28;2.92;;;14.10;99.90;15.90;93693.00;;;;7386635;19;20129;-83
2023/05/15 07:29:23;;;;;;;3.15;2.83;;;14.10;99.90;15.60;93672.00;;;;7386415;19;20129;-83
2023/05/15 07:31:57;;;;;;;3.08;2.55;;;14.20;99.90;16.40;93678.00;;;;7382834;19;20632;-83
2023/05/15 07:34:31;;;;;;;2.88;2.53;;;14.20;99.90;17.00;93681.00;;;;7385332;19;20128;-83
2023/05/15 07:37:05;;;;;;;6.20;2.85;;;14.50;99.90;16.00;93663.00;;;;7382979;19;20152;-83
2023/05/15 07:39:32;;;;;;;2.90;2.60;;;14.60;5.50;15.70;93669.00;;;;7383388;19;20192;-82
2023/05/15 07:42:06;;;;;;;3.30;2.83;;;14.70;6.20;15.80;93686.00;;;;7384488;19;20146;-82
2023/05/15 07:44:33;;;;;;;2.63;2.35;;;14.80;3.00;15.90;93671.00;;;;7385285;19;20164;-81
2023/05/15 07:47:11;;;;;;;3.63;2.65;;;14.90;1.00;16.80;93665.00;;;;7382246;19;20172;-81
2023/05/15 07:49:56;;;;;;;3.00;2.70;;;15.10;1.00;16.00;93677.00;;;;7385324;19;20171;-82
2023/05/15 07:52:29;;;;;;;3.83;3.05;;;15.10;1.00;16.50;93654.00;;;;7382776;19;20136;-82
2023/05/15 07:55:04;;;;;;;4.55;2.70;;;15.30;1.00;16.30;93630.00;;;;7383963;19;20128;-82
2023/05/15 07:57:31;;;;;;;3.47;2.88;;;15.40;1.00;16.30;93676.00;;;;7383517;19;20141;-82
2023/05/15 08:00:11;;;;;;;4.95;3.42;;;15.50;1.00;17.00;93675.00;;;;7382520;19;20174;-83
2023/05/15 08:02:46;;;;;;;5.22;2.80;;;15.60;1.00;17.60;93657.00;;;;7383014;19;20652;-82
2023/05/15 08:05:26;;;;;;;4.10;3.13;;;15.80;1.00;18.00;93645.00;;;;7382022;19;20160;-82
2023/05/15 08:07:53;;;;;;;3.50;2.80;;;16.10;1.00;18.40;93674.00;;;;7383492;19;20483;-82
2023/05/15 08:10:27;;;;;;;3.85;3.10;;;16.20;1.00;18.50;93643.00;;;;7382227;19;20154;-82
2023/05/15 08:13:01;;;;;;;4.95;3.28;;;16.60;1.00;17.60;93694.00;;;;7382572;19;20133;-82
2023/05/15 08:15:29;;;;;;;4.30;2.90;;;16.70;1.00;16.70;93680.00;;;;7381671;19;20144;-82
2023/05/15 08:18:10;;;;;;;4.43;3.05;;;16.60;1.00;16.60;93632.00;;;;7386568;19;20754;-83
2023/05/15 08:20:37;;;;;;;3.88;3.35;;;16.50;1.00;17.90;93696.00;;;;7388368;19;20173;-83
2023/05/15 08:23:11;;;;;;;3.20;2.90;;;16.70;1.00;16.90;93700.00;;;;7388175;19;20157;-82
2023/05/15 08:25:45;;;;;;;3.95;2.80;;;16.70;1.00;17.50;93692.00;;;;7390267;19;20125;-82
2023/05/15 08:28:12;;;;;;;4.15;2.90;;;16.50;1.00;16.20;93672.00;;;;7388402;19;20149;-83
2023/05/15 08:30:46;;;;;;;3.40;3.10;;;16.30;1.00;16.50;93680.00;;;;7389455;19;20146;-83
2023/05/15 08:33:20;;;;;;;4.22;2.90;;;16.10;1.00;17.60;93653.00;;;;7389068;19;20153;-82
2023/05/15 08:35:54;;;;;;;3.85;3.30;;;16.20;1.00;15.90;93660.00;;;;7387644;19;20206;-82
2023/05/15 08:38:28;;;;;;;2.80;2.60;;;16.20;1.00;16.80;93680.00;;;;7388631;19;20485;-83
2023/05/15 08:41:01;;;;;;;3.95;3.03;;;15.90;1.00;16.50;93645.00;;;;7386101;19;20147;-82
2023/05/15 08:43:38;;;;;;;4.90;3.28;;;;;18.80;93649.00;;;;7387548;19;20144;-83
2023/05/15 08:46:06;;;;;;;7.88;3.53;;;16.40;1.00;18.80;93657.00;;;;7390280;19;20133;-83
2023/05/15 08:48:41;;;;;;;4.03;3.20;;;16.70;1.00;17.50;93674.00;;;;7391966;19;20139;-83
2023/05/15 08:51:09;;;;;;;3.65;2.90;;;16.90;1.00;18.20;93667.00;;;;7388233;19;20197;-83
2023/05/15 08:53:44;;;;;;;3.40;3.10;;;16.80;1.00;17.30;93664.00;;;;7389819;19;20460;-82
2023/05/15 08:56:18;;;;;;;3.38;3.08;;;16.90;1.00;17.20;93664.00;;;;7389869;19;20153;-83
2023/05/15 08:58:53;;;;;;;3.42;3.13;;;16.90;1.00;18.30;93667.00;;;;7387981;19;20149;-84
2023/05/15 09:01:21;;;;;;;3.85;2.33;;;17.00;1.00;17.60;93642.00;;;;7389286;19;20759;-82
2023/05/15 09:04:04;;;;;;;2.72;2.53;;;17.10;1.00;18.20;93629.00;;;;7388443;19;20156;-83
2023/05/15 09:06:42;;;;;;;3.20;2.75;;;17.20;1.00;19.70;93638.00;;;;7387574;19;20133;-84
2023/05/15 09:09:18;;;;;;;4.15;3.00;;;17.30;1.00;19.50;93593.00;;;;7387801;19;20155;-84
2023/05/15 09:11:53;;;;;;;3.38;2.40;;;17.40;1.00;20.30;93660.00;;;;7388141;19;20544;-81
2023/05/15 09:14:26;;;;;;;3.20;2.90;;;17.80;1.00;19.80;93632.00;;;;7388633;19;20165;-84
2023/05/15 09:16:54;;;;;;;2.92;2.63;;;17.60;1.00;19.10;93657.00;;;;7387170;19;20866;-84
2023/05/15 09:19:28;;;;;;;2.50;2.30;;;17.50;1.00;19.50;93638.00;;;;7387508;19;20242;-83
2023/05/15 09:22:21;;;;;;;3.65;2.30;;;17.70;1.00;19.80;93637.00;;;;7386745;19;20145;-84
2023/05/15 09:24:58;;;;;;;2.70;2.47;;;17.70;1.00;18.60;93553.00;;;;7386675;19;20587;-83
2023/05/15 09:27:42;;;;;;;2.78;2.30;;;18.00;1.00;18.00;93681.00;;;;7386867;19;20152;-82
2023/05/15 09:30:17;;;;;;;2.70;2.50;;;18.20;1.00;18.80;93646.00;;;;7385301;19;20640;-84
2023/05/15 09:32:51;;;;;;;3.40;2.72;;;17.70;1.00;19.80;93605.00;;;;7384806;19;20626;-84
2023/05/15 09:35:38;;;;;;;3.28;2.97;;;17.80;1.00;20.40;93653.00;;;;7387005;19;20148;-84
2023/05/15 09:38:12;;;;;;;2.60;2.40;;;18.10;1.00;19.10;93623.00;;;;7387597;19;20177;-82
2023/05/15 09:40:39;;;;;;;4.22;2.60;;;18.80;1.00;19.70;93639.00;;;;7386746;19;20144;-85
2023/05/15 09:43:14;;;;;;;4.57;2.55;;;19.00;1.00;20.10;93537.00;;;;7385979;19;20762;-83
2023/05/15 09:45:42;;;;;;;4.07;2.92;;;19.30;1.00;20.80;93604.00;;;;7388209;19;20475;-84
2023/05/15 09:48:16;;;;;;;3.28;2.40;;;19.50;99.90;19.60;93615.00;;;;7387337;19;20152;-83
2023/05/15 09:50:44;;;;;;;3.85;2.30;;;19.60;99.90;21.50;93594.00;;;;7387269;19;20232;-84
2023/05/15 09:53:12;;;;;;;4.97;3.05;;;19.80;62.10;21.90;93599.00;;;;7386907;19;20584;-84
2023/05/15 09:55:48;;;;;;;2.90;2.35;;;19.80;3.70;22.20;93589.00;;;;7386090;19;20152;-85
2023/05/15 09:58:24;;;;;;;4.43;2.60;;;19.90;1.00;18.80;93600.00;;;;7388055;19;20148;-83
2023/05/15 10:00:59;;;;;;;3.28;2.75;;;20.10;99.90;20.00;93620.00;;;;7386616;19;20173;-82
2023/05/15 10:03:28;;;;;;;4.00;2.80;;;20.20;99.90;22.20;93610.00;;;;7386527;19;20298;-83
2023/05/15 10:06:17;;;;;;;4.00;2.60;;;20.30;98.70;21.10;93572.00;;;;7385774;19;20132;-81
2023/05/15 10:08:53;;;;;;;3.67;2.50;;;20.80;3.40;20.10;93613.00;;;;7386327;19;21147;-81
2023/05/15 10:11:31;;;;;;;3.85;2.45;;;20.80;1.00;20.90;93599.00;;;;7386010;19;20149;-80
2023/05/15 10:14:09;;;;;;;2.90;2.60;;;21.30;46.30;20.40;93580.00;;;;7386128;19;20169;-80
2023/05/15 10:16:44;;;;;;;3.05;2.70;;;21.40;1.00;22.00;93611.00;;;;7385912;19;20587;-80
2023/05/15 10:19:12;;;;;;;4.72;2.53;;;21.40;1.00;21.40;93557.00;;;;7386974;19;20128;-80
2023/05/15 10:21:41;;;;;;;4.20;2.70;;;21.70;1.00;21.70;93612.00;;;;7387343;19;20135;-80
2023/05/15 10:24:18;;;;;;;3.17;2.85;;;22.10;1.00;22.60;93588.00;;;;7386802;19;20142;-80
2023/05/15 10:26:47;;;;;;;4.75;2.60;;;22.60;99.90;23.80;93580.00;;;;7386853;19;20156;-82
2023/05/15 10:29:25;;;;;;;3.55;2.95;;;22.10;1.00;23.60;93570.00;;;;7386583;19;20144;-82
2023/05/15 10:32:00;;;;;;;6.25;2.85;;;21.50;1.00;22.80;93585.00;;;;7386396;19;20165;-83
2023/05/15 10:34:34;;;;;;;6.20;3.45;;;21.10;1.00;23.20;93550.00;;;;7387138;19;20141;-84
2023/05/15 10:37:03;;;;;;;3.53;3.22;;;21.10;1.00;23.00;93562.00;;;;7386031;19;20588;-83
2023/05/15 10:39:40;;;;;;;3.60;2.70;;;20.90;1.00;23.10;93598.00;;;;7385739;19;20132;-83
2023/05/15 10:42:15;;;;;;;5.70;3.00;;;20.80;1.00;21.40;93602.00;;;;7387143;19;20129;-82
2023/05/15 10:44:51;;;;;;;3.22;2.90;;;21.00;1.00;22.40;93594.00;;;;7388644;19;20153;-85
2023/05/15 10:47:33;;;;;;;2.75;2.55;;;20.80;1.00;22.70;93598.00;;;;7386449;19;20163;-85
2023/05/15 10:50:07;;;;;;;4.38;2.30;;;20.80;1.00;19.90;93564.00;;;;7387467;19;20157;-84
2023/05/15 10:52:51;;;;;;;3.20;2.50;;;20.50;1.00;19.20;93570.00;;;;7386315;19;20152;-83
2023/05/15 10:55:18;;;;;;;4.60;2.47;;;20.10;1.00;21.60;93570.00;;;;7387217;19;20610;-85
2023/05/15 10:57:53;;;;;;;2.72;2.20;;;20.30;1.00;22.30;93541.00;;;;7388831;19;20501;-83
2023/05/15 11:00:30;;;;;;;3.67;2.00;;;20.70;1.00;23.30;93620.00;;;;7386395;19;23144;-85
2023/05/15 11:03:04;;;;;;;3.60;2.03;;;21.20;1.00;23.40;93571.00;;;;7388370;19;20160;-86
2023/05/15 11:06:17;;;;;;;2.50;2.30;;;21.20;1.00;22.70;93558.00;;;;7386901;19;20137;-83
2023/05/15 11:08:44;;;;;;;4.47;2.28;;;21.30;1.00;21.90;93556.00;;;;7387093;19;20505;-83
2023/05/15 11:11:51;;;;;;;3.83;2.13;;;22.00;99.90;20.10;93633.00;;;;7385641;19;20144;-83
2023/05/15 11:14:19;;;;;;;3.88;2.15;;;21.30;99.90;19.50;93588.00;;;;7385826;19;20173;-85
2023/05/15 11:16:52;;;;;;;2.83;2.35;;;21.00;1.00;22.30;93586.00;;;;7391719;19;20669;-89
2023/05/15 11:19:34;;;;;;;2.28;2.08;;;21.30;1.00;19.70;93583.00;;;;7389362;19;20125;-84
2023/05/15 11:22:15;;;;;;;4.40;2.03;;;21.50;99.90;20.80;93625.00;;;;7387773;19;20149;-85
2023/05/15 11:25:08;;;;;;;3.50;2.17;;;21.80;99.90;20.40;93586.00;;;;7384551;19;20156;-84
2023/05/15 11:27:45;;;;;;;5.82;2.45;;;21.50;99.90;20.00;93615.00;;;;7384806;19;20156;-83
2023/05/15 11:30:34;;;;;;;2.30;2.10;;;21.00;1.00;18.80;93622.00;;;;7385048;19;20452;-83
2023/05/15 11:33:10;;;;;;;4.07;1.98;;;20.30;1.00;18.90;93581.00;;;;7384641;19;20481;-84
2023/05/15 11:35:46;;;;;;;3.13;2.72;;;20.20;1.00;20.10;93556.00;;;;7383898;19;20151;-86
2023/05/15 11:38:24;;;;;;;2.92;2.00;;;21.00;1.00;20.80;93570.00;;;;7384720;19;20148;-85
2023/05/15 11:41:02;;;;;;;6.20;2.33;;;21.80;1.00;23.00;93560.00;;;;7384035;19;20497;-84